Norman, Arkansas
Current Conditions -  °F | °C
As of 8:53 PM on Tuesday 21 Oct 2014 (Local Time) from KMWT Reporting Station
Haze Haze  
Wind Chill: 60°   Ceiling: Unl
Heat Index: 60°   Visibility: 4mi
Dew Point: 58°   Wind: 0mph
Humidity: 93%   Direction: NA
Pressure: 30.07"   Gusts: NA
Location:  34.46°N, 93.68°W
Report Text: KMWT 220153Z AUTO 00000KT 4SM BR CLR 16/14 A3007 RMK AO2 SLP179 T01560144
Loading
Personal Weather Stations






























Interactive Weather Map New forecast layout! Learn more

10-Day Weather Forecast

Advertisements
Track Severe Weather on mobile